Time;durP1;ratioP1;P1;durP2;ratioP2;P2;SDS_P1;SDS_P2;PMS_P1;PMS_P2;Temp;Humidity;BMP_temperature;BMP_pressure;BME280_temperature;BME280_humidity;BME280_pressure;Samples;Min_cycle;Max_cycle;Signal;HPM_P1;HPM_P2
2021/08/20 00:00:11;;;;;;;7.38;6.68;;;;;;;18.91;67.39;100930.91;687876;28;20934;-65
2021/08/20 00:00:36;;;;;;;7.95;7.18;;;;;;;18.89;67.45;100928.41;684868;28;138195;-65
2021/08/20 00:00:57;;;;;;;9.18;7.15;;;;;;;18.89;67.50;100930.31;688094;28;46294;-65
2021/08/20 00:01:19;;;;;;;9.30;7.32;;;;;;;18.90;67.57;100929.22;690067;28;18229;-66
2021/08/20 00:01:40;;;;;;;8.43;7.18;;;;;;;18.89;67.55;100933.06;688756;28;46437;-65
2021/08/20 00:02:02;;;;;;;7.35;6.65;;;;;;;18.89;67.61;100924.84;689394;28;21126;-65
2021/08/20 00:02:23;;;;;;;7.38;6.68;;;;;;;18.90;67.51;100931.97;689762;28;21160;-65
2021/08/20 00:02:45;;;;;;;8.10;6.97;;;;;;;18.88;67.62;100915.78;689415;28;22237;-66
2021/08/20 00:03:06;;;;;;;7.85;6.93;;;;;;;18.88;67.65;100923.16;688589;28;47951;-66
2021/08/20 00:03:27;;;;;;;7.80;7.00;;;;;;;18.88;67.57;100915.78;689422;28;21329;-65
2021/08/20 00:03:48;;;;;;;7.30;6.60;;;;;;;18.88;67.62;100931.38;689590;28;22390;-65
2021/08/20 00:04:10;;;;;;;7.88;7.07;;;;;;;18.88;67.62;100923.16;689409;28;22368;-65
2021/08/20 00:04:31;;;;;;;7.63;6.93;;;;;;;18.88;67.63;100917.69;688364;28;45691;-65
2021/08/20 00:04:52;;;;;;;7.72;6.93;;;;;;;18.88;67.62;100917.69;689499;28;23418;-65
2021/08/20 00:05:13;;;;;;;7.88;7.13;;;;;;;18.89;67.56;100931.13;689219;28;21652;-65
2021/08/20 00:05:35;;;;;;;8.00;7.20;;;;;;;18.87;67.64;100926.94;689885;28;22395;-65
2021/08/20 00:05:56;;;;;;;8.02;7.22;;;;;;;18.86;67.55;100928.84;688880;28;45280;-65
2021/08/20 00:06:18;;;;;;;8.00;7.20;;;;;;;18.88;67.64;100925.91;689711;28;23451;-65
2021/08/20 00:06:39;;;;;;;7.75;6.95;;;;;;;18.87;67.75;100916.00;689219;28;41155;-65
2021/08/20 00:07:00;;;;;;;8.18;7.28;;;;;;;18.87;67.63;100924.22;689893;28;15383;-65
2021/08/20 00:07:22;;;;;;;8.30;7.50;;;;;;;18.85;67.79;100926.34;689742;28;22364;-65
2021/08/20 00:07:43;;;;;;;8.65;7.15;;;;;;;18.87;67.67;100921.47;688056;28;44401;-66
2021/08/20 00:08:05;;;;;;;7.97;7.13;;;;;;;18.85;67.91;100920.88;689605;28;23563;-65
2021/08/20 00:08:26;;;;;;;9.35;7.53;;;;;;;18.85;67.84;100918.13;688522;28;44401;-65
2021/08/20 00:08:48;;;;;;;8.63;7.30;;;;;;;18.84;67.97;100917.31;689823;28;24471;-65
2021/08/20 00:09:09;;;;;;;8.93;7.20;;;;;;;18.84;67.96;100920.06;688825;28;44905;-65
2021/08/20 00:09:31;;;;;;;8.45;7.43;;;;;;;18.85;67.89;100920.88;690543;28;1206;-65
2021/08/20 00:09:54;;;;;;;8.70;7.65;;;;;;;18.85;67.96;100923.63;690426;28;5493;-65
2021/08/20 00:10:16;;;;;;;8.98;7.68;;;;;;;18.84;67.95;100917.31;687122;28;92430;-65
2021/08/20 00:10:37;;;;;;;9.60;7.63;;;;;;;18.84;68.06;100920.06;688471;28;43803;-66
2021/08/20 00:11:02;;;;;;;8.68;7.47;;;;;;;18.83;67.81;100923.81;689564;28;23463;-65
2021/08/20 00:11:25;;;;;;;9.50;7.05;;;;;;;18.83;68.08;100915.59;686510;28;113293;-65
2021/08/20 00:11:47;;;;;;;9.02;7.53;;;;;;;18.84;68.04;100919.16;688258;28;69119;-65
2021/08/20 00:12:09;;;;;;;8.02;7.22;;;;;;;18.84;68.09;100921.91;689217;28;46340;-65
2021/08/20 00:12:30;;;;;;;8.40;7.53;;;;;;;18.83;68.08;100923.81;688879;28;44446;-65
2021/08/20 00:12:51;;;;;;;8.02;7.30;;;;;;;18.85;68.08;100929.09;689398;28;21508;-65
2021/08/20 00:13:13;;;;;;;8.07;7.28;;;;;;;18.84;68.09;100919.16;689670;28;22366;-65
2021/08/20 00:13:35;;;;;;;8.50;7.60;;;;;;;18.84;68.16;100916.44;689080;28;46359;-65
2021/08/20 00:13:56;;;;;;;8.30;7.50;;;;;;;18.82;68.03;100919.38;688987;28;45277;-65
2021/08/20 00:14:17;;;;;;;8.70;7.80;;;;;;;18.83;68.03;100914.78;689730;28;21306;-66
2021/08/20 00:14:40;;;;;;;9.35;7.78;;;;;;;18.82;68.17;100908.44;689704;28;22410;-65
2021/08/20 00:15:01;;;;;;;12.18;7.88;;;;;;;18.80;68.19;100913.31;689133;28;46430;-65
2021/08/20 00:15:22;;;;;;;9.23;7.50;;;;;;;18.81;68.05;100914.16;689803;28;22465;-65
2021/08/20 00:15:48;;;;;;;10.77;7.95;;;;;;;18.82;68.13;100913.91;689324;28;37796;-65
2021/08/20 00:16:09;;;;;;;10.85;8.35;;;;;;;18.82;68.22;100916.66;688715;28;44382;-65
2021/08/20 00:16:30;;;;;;;12.15;9.18;;;;;;;18.83;68.03;100918.34;690533;28;3696;-65
2021/08/20 00:16:51;;;;;;;11.43;8.85;;;;;;;18.83;68.03;100904.66;689678;28;18024;-65
2021/08/20 00:17:13;;;;;;;10.90;8.50;;;;;;;18.83;68.19;100906.56;689938;28;19246;-65
2021/08/20 00:17:34;;;;;;;10.15;8.05;;;;;;;18.83;68.15;100903.84;688508;28;46292;-65
2021/08/20 00:17:55;;;;;;;9.80;7.85;;;;;;;18.82;68.23;100913.91;688275;28;46359;-65
2021/08/20 00:18:16;;;;;;;10.60;8.20;;;;;;;18.82;68.14;100908.44;688758;28;40882;-65
2021/08/20 00:18:38;;;;;;;9.02;7.82;;;;;;;18.84;68.10;100908.22;688536;28;46358;-65
2021/08/20 00:19:00;;;;;;;8.50;7.65;;;;;;;18.84;68.02;100906.38;689423;28;23628;-65
2021/08/20 00:19:23;;;;;;;9.63;7.82;;;;;;;18.84;67.99;100909.09;689749;28;14754;-66
2021/08/20 00:19:45;;;;;;;8.90;7.93;;;;;;;18.84;68.24;100903.63;690104;28;12633;-65
2021/08/20 00:20:08;;;;;;;9.88;7.80;;;;;;;18.83;68.11;100915.59;688619;28;47286;-65
2021/08/20 00:20:29;;;;;;;11.23;7.78;;;;;;;18.83;68.17;100903.84;688808;28;45511;-65
2021/08/20 00:20:50;;;;;;;9.32;7.68;;;;;;;18.84;68.21;100921.91;689497;28;23474;-65
2021/08/20 00:21:15;;;;;;;8.32;7.30;;;;;;;18.84;68.19;100917.31;688903;28;1552;-65
2021/08/20 00:21:39;;;;;;;8.88;7.53;;;;;;;18.83;68.24;100901.91;684777;28;138657;-65
2021/08/20 00:22:00;;;;;;;8.10;7.25;;;;;;;18.82;68.25;100919.38;687598;28;69494;-65
2021/08/20 00:22:22;;;;;;;7.78;6.97;;;;;;;18.82;68.33;100916.66;687358;28;1571;-66
2021/08/20 00:22:44;;;;;;;9.73;7.57;;;;;;;18.81;68.28;100906.78;685817;28;46432;-65
2021/08/20 00:23:06;;;;;;;8.18;7.38;;;;;;;18.80;68.39;100918.78;686994;28;44344;-65
2021/08/20 00:23:27;;;;;;;8.82;7.05;;;;;;;18.80;68.36;100915.22;689336;28;23445;-64
2021/08/20 00:23:48;;;;;;;9.40;7.25;;;;;;;18.80;68.38;100909.75;688492;28;46296;-65
2021/08/20 00:24:14;;;;;;;9.20;7.40;;;;;;;18.79;68.46;100908.06;689669;28;22527;-65
2021/08/20 00:24:36;;;;;;;9.48;7.85;;;;;;;18.77;68.54;100913.78;686765;28;113584;-65
2021/08/20 00:24:57;;;;;;;8.70;7.57;;;;;;;18.78;68.44;100912.72;688830;28;45238;-65
2021/08/20 00:25:18;;;;;;;8.45;7.50;;;;;;;18.79;68.45;100910.81;689434;28;23807;-65
2021/08/20 00:25:40;;;;;;;9.10;7.70;;;;;;;18.78;68.56;100914.59;689582;28;22469;-65
2021/08/20 00:26:01;;;;;;;9.30;7.90;;;;;;;18.77;68.64;100916.50;688909;28;45356;-65
2021/08/20 00:26:23;;;;;;;8.82;7.30;;;;;;;18.77;68.55;100912.94;688295;28;45138;-65
2021/08/20 00:26:45;;;;;;;9.63;7.38;;;;;;;18.76;68.47;100914.00;689247;28;21451;-65
2021/08/20 00:27:07;;;;;;;10.05;7.50;;;;;;;18.75;68.40;100910.44;687549;28;69540;-66
2021/08/20 00:27:28;;;;;;;8.20;7.23;;;;;;;18.76;68.62;100914.00;686435;28;66686;-65
2021/08/20 00:27:49;;;;;;;7.80;7.00;;;;;;;18.74;68.66;100908.75;688008;28;46304;-66
2021/08/20 00:28:12;;;;;;;9.40;7.53;;;;;;;18.75;68.59;100910.44;689021;28;21682;-65
2021/08/20 00:28:36;;;;;;;8.07;7.27;;;;;;;18.76;68.56;100914.84;684344;28;138245;-65
2021/08/20 00:28:59;;;;;;;8.75;7.72;;;;;;;18.76;68.62;100914.84;689644;28;1606;-65
2021/08/20 00:29:20;;;;;;;8.82;7.93;;;;;;;18.77;68.53;100912.94;688830;28;26436;-65
2021/08/20 00:29:46;;;;;;;8.85;7.95;;;;;;;18.75;68.60;100910.44;690772;28;956;-65
2021/08/20 00:30:08;;;;;;;8.15;7.32;;;;;;;18.76;68.55;100912.13;688282;28;114205;-65
2021/08/20 00:30:29;;;;;;;8.00;7.10;;;;;;;18.78;68.55;100914.59;689300;28;45134;-65
2021/08/20 00:30:50;;;;;;;8.88;7.15;;;;;;;18.77;68.57;100908.31;689769;28;23533;-65
2021/08/20 00:31:13;;;;;;;7.75;6.97;;;;;;;18.77;68.71;100916.50;687188;28;22393;-66
2021/08/20 00:31:35;;;;;;;9.15;7.20;;;;;;;18.77;68.64;100910.22;682827;28;80761;-66
2021/08/20 00:31:56;;;;;;;8.77;7.57;;;;;;;18.76;68.57;100914.00;685125;28;2933;-66
2021/08/20 00:32:17;;;;;;;7.95;7.15;;;;;;;18.77;68.56;100913.78;685241;28;17005;-66
2021/08/20 00:32:39;;;;;;;8.35;7.43;;;;;;;18.76;68.63;100914.00;687134;28;23389;-66
2021/08/20 00:33:00;;;;;;;8.00;7.18;;;;;;;18.76;68.63;100909.38;685715;28;35869;-66
2021/08/20 00:33:21;;;;;;;8.23;7.35;;;;;;;18.78;68.57;100920.06;689135;28;22479;-66
2021/08/20 00:33:43;;;;;;;8.98;7.22;;;;;;;18.75;68.51;100915.91;692212;28;22432;-66
2021/08/20 00:34:04;;;;;;;9.43;7.65;;;;;;;18.78;68.59;100914.59;691873;28;45377;-66
2021/08/20 00:34:27;;;;;;;8.63;7.20;;;;;;;18.76;68.57;100911.25;689376;28;45347;-66
2021/08/20 00:34:48;;;;;;;8.02;7.10;;;;;;;18.76;68.71;100914.00;690635;28;22384;-66
2021/08/20 00:35:09;;;;;;;8.25;7.45;;;;;;;18.78;68.55;100920.06;691960;28;44454;-66
2021/08/20 00:35:31;;;;;;;8.13;7.28;;;;;;;18.78;68.53;100914.59;692353;28;22416;-66
2021/08/20 00:35:52;;;;;;;8.02;7.22;;;;;;;18.78;68.52;100914.59;691971;28;41387;-66
2021/08/20 00:36:14;;;;;;;7.80;7.00;;;;;;;18.78;68.54;100920.06;692050;28;41113;-66
2021/08/20 00:36:35;;;;;;;8.20;7.35;;;;;;;18.77;68.63;100915.69;692864;28;23505;-66
2021/08/20 00:36:57;;;;;;;7.50;6.68;;;;;;;18.78;68.43;100918.19;692777;28;23415;-66
2021/08/20 00:37:19;;;;;;;8.55;6.80;;;;;;;18.76;68.49;100912.13;691046;28;45425;-65
2021/08/20 00:37:40;;;;;;;7.60;6.90;;;;;;;18.78;68.46;100914.59;690087;28;46375;-66
2021/08/20 00:38:02;;;;;;;7.68;6.97;;;;;;;18.78;68.55;100909.13;690700;28;45513;-66
2021/08/20 00:38:24;;;;;;;7.90;7.00;;;;;;;18.77;68.51;100908.31;693322;28;1111;-66
2021/08/20 00:38:45;;;;;;;8.52;7.30;;;;;;;18.78;68.43;100911.84;691379;28;46405;-66
2021/08/20 00:39:06;;;;;;;8.57;7.45;;;;;;;18.78;68.48;100911.84;691776;28;46356;-66
2021/08/20 00:39:28;;;;;;;8.43;7.30;;;;;;;18.77;68.61;100916.50;693517;28;881;-66
2021/08/20 00:39:51;;;;;;;8.23;7.28;;;;;;;18.77;68.43;100921.97;691514;28;49858;-65
2021/08/20 00:40:13;;;;;;;8.07;7.28;;;;;;;18.77;68.45;100913.78;692402;28;29019;-65
2021/08/20 00:40:34;;;;;;;8.00;7.20;;;;;;;18.78;68.47;100922.81;691060;28;23477;-66
2021/08/20 00:40:55;;;;;;;8.23;7.18;;;;;;;18.77;68.48;100911.03;691611;28;21509;-66
2021/08/20 00:41:17;;;;;;;8.57;7.13;;;;;;;18.75;68.44;100904.97;692806;28;23476;-65
2021/08/20 00:41:40;;;;;;;7.80;7.00;;;;;;;18.77;68.56;100918.41;689813;28;92317;-66
2021/08/20 00:42:03;;;;;;;7.40;6.70;;;;;;;18.76;68.54;100916.72;690400;28;46341;-66
2021/08/20 00:42:24;;;;;;;7.80;7.00;;;;;;;18.77;68.48;100913.78;691108;28;69289;-66
2021/08/20 00:42:46;;;;;;;7.53;6.82;;;;;;;18.75;68.45;100910.44;692777;28;22404;-66
2021/08/20 00:43:07;;;;;;;7.82;7.03;;;;;;;18.76;68.67;100914.00;687608;28;89259;-66
2021/08/20 00:43:29;;;;;;;7.70;6.97;;;;;;;18.78;68.60;100914.59;689566;28;23493;-66
2021/08/20 00:43:52;;;;;;;8.18;6.88;;;;;;;18.76;68.46;100908.53;688271;28;59962;-66
2021/08/20 00:44:14;;;;;;;7.82;6.85;;;;;;;18.75;68.49;100909.59;689825;28;23548;-66
2021/08/20 00:44:35;;;;;;;8.07;6.90;;;;;;;18.77;68.48;100908.31;688914;28;45948;-66
2021/08/20 00:44:56;;;;;;;7.70;6.97;;;;;;;18.77;68.43;100913.78;689722;28;24556;-66
2021/08/20 00:45:17;;;;;;;8.05;7.25;;;;;;;18.78;68.41;100917.34;689905;28;23534;-66
2021/08/20 00:45:39;;;;;;;7.93;7.00;;;;;;;18.78;68.44;100911.84;688751;28;22396;-66
2021/08/20 00:46:01;;;;;;;7.38;6.68;;;;;;;18.77;68.49;100911.03;687677;28;44045;-66
2021/08/20 00:46:22;;;;;;;7.53;6.78;;;;;;;18.77;68.54;100911.03;687718;28;46274;-66
2021/08/20 00:46:43;;;;;;;7.90;7.07;;;;;;;18.78;68.44;100911.84;688840;28;22261;-66
2021/08/20 00:47:04;;;;;;;7.60;6.90;;;;;;;18.77;68.45;100911.03;687967;28;24205;-66
2021/08/20 00:47:26;;;;;;;7.63;6.80;;;;;;;18.76;68.44;100908.53;686306;28;23474;-66
2021/08/20 00:47:48;;;;;;;8.10;6.85;;;;;;;18.77;68.26;100913.78;687191;28;45351;-66
2021/08/20 00:48:09;;;;;;;10.10;7.63;;;;;;;18.76;68.44;100908.53;689116;28;44460;-66
2021/08/20 00:48:30;;;;;;;9.23;7.65;;;;;;;18.78;68.43;100914.59;690070;28;22404;-66
2021/08/20 00:48:52;;;;;;;7.95;7.15;;;;;;;18.78;68.44;100914.59;689761;28;23429;-66
2021/08/20 00:49:14;;;;;;;9.63;7.03;;;;;;;18.77;68.44;100918.41;689614;28;44158;-66
2021/08/20 00:49:35;;;;;;;8.02;7.05;;;;;;;18.77;68.46;100915.69;691677;28;45271;-66
2021/08/20 00:49:57;;;;;;;7.57;6.85;;;;;;;18.75;68.40;100910.44;688986;28;23486;-65
2021/08/20 00:50:18;;;;;;;8.52;7.40;;;;;;;18.75;68.45;100910.44;688194;28;46371;-66
2021/08/20 00:50:39;;;;;;;8.15;7.35;;;;;;;18.78;68.32;100907.25;689006;28;14251;-66
2021/08/20 00:51:03;;;;;;;8.20;7.40;;;;;;;18.77;68.44;100911.03;689731;28;23526;-66
2021/08/20 00:51:29;;;;;;;8.07;7.18;;;;;;;18.78;68.40;100912.72;683365;28;139026;-66
2021/08/20 00:52:03;;;;;;;8.15;7.32;;;;;;;18.78;68.33;100907.25;685634;28;59247;-65
2021/08/20 00:52:24;;;;;;;8.07;6.90;;;;;;;18.79;68.31;100910.81;684777;28;91299;-65
2021/08/20 00:52:45;;;;;;;9.07;7.15;;;;;;;18.78;68.31;100918.19;687442;28;21369;-66
2021/08/20 00:53:06;;;;;;;7.80;7.00;;;;;;;18.76;68.34;100909.38;685507;28;22321;-66
2021/08/20 00:53:29;;;;;;;7.38;6.65;;;;;;;18.77;68.43;100911.03;689018;28;46321;-66
2021/08/20 00:53:53;;;;;;;8.38;7.45;;;;;;;18.75;68.58;100915.91;687769;28;70311;-66
2021/08/20 00:54:18;;;;;;;8.57;7.55;;;;;;;18.74;68.45;100908.75;687502;28;92126;-65
2021/08/20 00:54:39;;;;;;;8.15;7.13;;;;;;;18.75;68.45;100909.59;687793;28;77420;-66
2021/08/20 00:55:00;;;;;;;8.60;7.07;;;;;;;18.73;68.49;100910.66;691769;28;965;-66
2021/08/20 00:55:24;;;;;;;8.63;7.60;;;;;;;18.73;68.43;100910.66;692301;28;22280;-66
2021/08/20 00:55:45;;;;;;;8.05;7.25;;;;;;;18.73;68.51;100912.56;686828;28;67446;-66
2021/08/20 00:56:07;;;;;;;7.95;7.05;;;;;;;18.72;68.40;100914.44;687235;28;45232;-66
2021/08/20 00:56:30;;;;;;;8.18;7.20;;;;;;;18.73;68.50;100912.56;687574;28;46379;-65
2021/08/20 00:56:52;;;;;;;8.85;7.25;;;;;;;18.72;68.53;100914.44;690428;28;1319;-65
2021/08/20 00:57:15;;;;;;;8.10;7.30;;;;;;;18.70;68.64;100913.03;687541;28;44528;-65
2021/08/20 00:57:38;;;;;;;7.28;6.57;;;;;;;18.70;68.70;100916.59;686076;28;115403;-66
2021/08/20 00:58:01;;;;;;;7.65;6.85;;;;;;;18.70;68.73;100911.13;689847;28;21403;-66
2021/08/20 00:58:22;;;;;;;7.72;6.93;;;;;;;18.69;68.79;100914.91;690633;28;1297;-66
2021/08/20 00:58:43;;;;;;;8.80;7.28;;;;;;;18.70;68.62;100913.84;689711;28;23443;-66
2021/08/20 00:59:05;;;;;;;9.82;6.90;;;;;;;18.69;68.74;100916.81;690777;28;1489;-66
2021/08/20 00:59:27;;;;;;;7.53;6.80;;;;;;;18.68;68.77;100916.00;689234;28;45572;-66
2021/08/20 00:59:48;;;;;;;8.10;7.30;;;;;;;18.70;68.68;100918.50;689343;28;34794;-66
2021/08/20 01:00:10;;;;;;;8.02;7.10;;;;;;;18.69;68.75;100911.34;687211;28;20801;-65
2021/08/20 01:00:31;;;;;;;7.68;6.88;;;;;;;18.68;68.79;100909.66;686613;28;47175;-66
2021/08/20 01:00:53;;;;;;;8.00;7.20;;;;;;;18.68;68.72;100916.00;690086;28;22813;-66
2021/08/20 01:01:15;;;;;;;8.63;7.10;;;;;;;18.68;68.88;100915.13;688779;28;44395;-66
2021/08/20 01:01:36;;;;;;;8.63;7.07;;;;;;;18.67;68.83;100913.47;688662;28;922;-65
2021/08/20 01:01:58;;;;;;;7.93;7.13;;;;;;;18.67;68.80;100908.84;684744;28;43172;-66
2021/08/20 01:02:20;;;;;;;8.10;7.25;;;;;;;18.68;68.77;100912.41;687951;28;42190;-65
2021/08/20 01:02:41;;;;;;;8.43;6.80;;;;;;;18.67;68.87;100916.22;687498;28;45262;-66
2021/08/20 01:03:03;;;;;;;9.65;7.15;;;;;;;18.68;68.85;100912.41;687223;28;20876;-66
2021/08/20 01:03:25;;;;;;;9.18;7.00;;;;;;;18.66;68.78;100917.25;687323;28;44209;-66
2021/08/20 01:03:47;;;;;;;7.68;6.88;;;;;;;18.67;68.89;100910.75;689622;28;22552;-66
2021/08/20 01:04:09;;;;;;;8.43;6.82;;;;;;;18.66;68.90;100907.16;688035;28;70218;-66
2021/08/20 01:04:30;;;;;;;8.65;7.20;;;;;;;18.67;68.74;100917.03;685430;28;46299;-66
2021/08/20 01:04:52;;;;;;;9.18;6.95;;;;;;;18.66;68.75;100915.34;684648;28;22375;-66
2021/08/20 01:05:19;;;;;;;7.20;6.50;;;;;;;18.67;68.84;100916.22;679019;28;93142;-65
2021/08/20 01:05:40;;;;;;;8.00;6.60;;;;;;;18.66;68.85;100911.78;679714;29;83090;-66
2021/08/20 01:06:02;;;;;;;9.18;7.03;;;;;;;18.65;68.86;100910.09;683201;28;23668;-66
2021/08/20 01:06:26;;;;;;;7.53;6.82;;;;;;;18.66;68.86;100914.53;682429;28;44386;-65
2021/08/20 01:06:48;;;;;;;7.63;6.75;;;;;;;18.65;68.95;100910.97;683570;28;91300;-65
2021/08/20 01:07:10;;;;;;;7.93;7.13;;;;;;;18.65;68.87;100907.38;687396;28;46210;-66
2021/08/20 01:07:36;;;;;;;8.37;7.40;;;;;;;18.65;68.92;100910.09;688830;28;44452;-65
2021/08/20 01:07:58;;;;;;;8.30;7.40;;;;;;;18.65;68.86;100910.09;682066;28;161546;-66
2021/08/20 01:08:21;;;;;;;8.25;7.45;;;;;;;18.65;69.01;100910.09;683627;28;45023;-66
2021/08/20 01:08:42;;;;;;;8.23;7.35;;;;;;;18.65;68.70;100907.38;682549;28;67523;-65
2021/08/20 01:09:04;;;;;;;8.77;7.70;;;;;;;18.65;68.80;100910.97;684844;28;46110;-65
2021/08/20 01:09:25;;;;;;;8.30;7.15;;;;;;;18.65;68.87;100912.84;687494;28;12093;-65
2021/08/20 01:09:47;;;;;;;7.55;6.75;;;;;;;18.64;68.94;100908.47;687765;28;23464;-66
2021/08/20 01:10:12;;;;;;;7.53;6.72;;;;;;;18.64;68.96;100911.19;689980;28;46274;-66
2021/08/20 01:10:33;;;;;;;7.47;6.78;;;;;;;18.63;68.85;100904.03;689109;28;115251;-66
2021/08/20 01:10:56;;;;;;;8.05;7.10;;;;;;;18.60;69.07;100901.75;689544;28;22297;-66
2021/08/20 01:11:17;;;;;;;8.35;6.93;;;;;;;18.61;69.11;100908.91;688115;28;69284;-65
2021/08/20 01:11:39;;;;;;;8.05;7.22;;;;;;;18.61;68.95;100912.47;688788;28;45254;-66
2021/08/20 01:12:01;;;;;;;7.82;7.05;;;;;;;18.60;69.05;100904.50;686998;28;46314;-65
2021/08/20 01:12:25;;;;;;;7.82;7.03;;;;;;;18.62;69.17;100916.03;686425;28;69437;-66
2021/08/20 01:12:47;;;;;;;8.38;7.47;;;;;;;18.60;69.00;100908.06;687442;28;44411;-65
2021/08/20 01:13:09;;;;;;;7.80;7.00;;;;;;;18.59;69.15;100914.59;686715;28;46349;-65
2021/08/20 01:13:33;;;;;;;7.88;7.07;;;;;;;18.61;69.03;100912.47;685002;28;92223;-66
2021/08/20 01:13:55;;;;;;;8.57;7.63;;;;;;;18.61;69.13;100908.91;686611;28;69296;-65
2021/08/20 01:14:27;;;;;;;8.30;7.47;;;;;;;18.60;69.23;100913.53;689594;28;21558;-66
2021/08/20 01:14:49;;;;;;;7.57;6.77;;;;;;;18.59;69.18;100911.88;687773;28;137149;-66
2021/08/20 01:15:11;;;;;;;7.70;6.90;;;;;;;18.61;69.05;100914.38;690306;28;69448;-66
2021/08/20 01:15:33;;;;;;;8.20;7.40;;;;;;;18.62;69.02;100913.31;690348;28;69689;-66
2021/08/20 01:15:56;;;;;;;7.82;7.05;;;;;;;18.60;69.15;100905.31;690165;28;22426;-66
2021/08/20 01:16:17;;;;;;;7.97;7.18;;;;;;;18.60;69.27;100913.53;688306;28;67648;-66
2021/08/20 01:16:39;;;;;;;8.48;7.18;;;;;;;18.61;69.11;100914.38;690511;28;21546;-66
2021/08/20 01:17:01;;;;;;;7.85;6.97;;;;;;;18.61;69.21;100912.47;690632;28;28541;-66
2021/08/20 01:17:23;;;;;;;7.78;7.03;;;;;;;18.60;69.14;100919.00;686483;28;46530;-66
2021/08/20 01:17:47;;;;;;;7.78;6.97;;;;;;;18.58;69.34;100906.63;684715;28;114211;-66
2021/08/20 01:18:09;;;;;;;8.40;7.00;;;;;;;18.58;69.38;100909.38;686322;28;42950;-65
2021/08/20 01:18:32;;;;;;;8.10;6.90;;;;;;;18.59;69.25;100914.59;688366;28;22249;-65
2021/08/20 01:19:02;;;;;;;7.82;7.03;;;;;;;18.60;69.23;100909.97;683395;28;137964;-65
2021/08/20 01:19:24;;;;;;;8.82;6.97;;;;;;;18.59;69.08;100914.59;687109;28;92282;-66
2021/08/20 01:19:47;;;;;;;8.82;7.30;;;;;;;18.60;69.26;100913.53;689202;28;41777;-66
2021/08/20 01:20:11;;;;;;;7.80;7.00;;;;;;;18.58;69.25;100914.84;689341;28;69108;-66
2021/08/20 01:20:34;;;;;;;7.40;6.70;;;;;;;18.59;69.24;100913.75;686896;28;92298;-66
2021/08/20 01:20:59;;;;;;;7.80;7.00;;;;;;;18.59;69.22;100916.47;683393;28;113588;-66
2021/08/20 01:21:23;;;;;;;7.28;6.57;;;;;;;18.59;69.21;100917.34;681658;28;113651;-66
2021/08/20 01:21:45;;;;;;;7.95;7.05;;;;;;;18.59;68.90;100908.28;683937;28;44406;-65
2021/08/20 01:22:07;;;;;;;8.07;7.25;;;;;;;18.61;69.47;100912.47;682731;28;46379;-66
2021/08/20 01:22:31;;;;;;;7.68;6.88;;;;;;;18.59;69.06;100917.34;681344;28;83707;-65
2021/08/20 01:22:53;;;;;;;7.80;6.80;;;;;;;18.60;69.20;100913.53;685025;28;38171;-66
2021/08/20 01:23:14;;;;;;;7.97;7.10;;;;;;;18.61;69.13;100914.38;686894;28;46511;-66
2021/08/20 01:23:37;;;;;;;9.52;7.50;;;;;;;18.60;69.22;100912.69;690049;28;1658;-66
2021/08/20 01:24:00;;;;;;;9.05;7.05;;;;;;;18.60;69.21;100916.25;689489;28;69426;-66
2021/08/20 01:24:22;;;;;;;7.93;7.03;;;;;;;18.60;69.29;100912.69;690552;28;46467;-66
2021/08/20 01:24:45;;;;;;;7.72;6.88;;;;;;;18.59;69.28;100909.13;688192;28;69415;-66
2021/08/20 01:25:09;;;;;;;7.25;6.55;;;;;;;18.58;69.28;100912.94;689169;28;40339;-66
2021/08/20 01:25:32;;;;;;;7.90;6.47;;;;;;;18.54;69.18;100904.34;687343;28;85820;-66
2021/08/20 01:25:55;;;;;;;8.45;7.18;;;;;;;18.57;69.28;100913.97;686754;28;92409;-66
2021/08/20 01:26:19;;;;;;;7.78;7.00;;;;;;;18.58;69.32;100909.38;690444;28;53015;-66
2021/08/20 01:26:41;;;;;;;8.00;7.20;;;;;;;18.58;69.32;100917.56;689880;28;24205;-66
2021/08/20 01:27:04;;;;;;;8.57;7.60;;;;;;;18.58;69.22;100915.66;690017;28;19555;-66
2021/08/20 01:27:27;;;;;;;8.35;7.47;;;;;;;18.57;69.32;100913.97;686444;28;113347;-66
2021/08/20 01:27:48;;;;;;;7.65;6.85;;;;;;;18.57;69.47;100915.88;688920;28;23496;-65
2021/08/20 01:28:11;;;;;;;7.97;7.18;;;;;;;18.57;69.34;100911.25;687658;28;46645;-66
2021/08/20 01:28:34;;;;;;;8.07;7.28;;;;;;;18.57;69.32;100913.97;686116;28;67041;-67
2021/08/20 01:28:57;;;;;;;7.65;6.88;;;;;;;18.56;69.42;100906.84;683311;28;69439;-67
2021/08/20 01:29:19;;;;;;;7.75;6.95;;;;;;;18.56;69.44;100909.59;683636;28;44388;-67
2021/08/20 01:29:41;;;;;;;7.20;6.50;;;;;;;18.57;69.44;100916.72;687515;28;899;-66
2021/08/20 01:30:05;;;;;;;7.85;7.05;;;;;;;18.57;69.45;100916.72;685522;28;16546;-66
2021/08/20 01:30:26;;;;;;;8.02;7.30;;;;;;;18.58;69.35;100912.09;681797;28;93083;-65
2021/08/20 01:30:48;;;;;;;8.10;7.30;;;;;;;18.58;69.45;100918.41;684999;28;23755;-67
2021/08/20 01:31:11;;;;;;;8.07;7.28;;;;;;;18.57;69.47;100915.88;682206;28;39742;-66
2021/08/20 01:31:34;;;;;;;7.90;7.10;;;;;;;18.57;69.43;100916.72;681867;28;92212;-66
2021/08/20 01:31:56;;;;;;;7.68;6.78;;;;;;;18.55;69.33;100914.19;682955;28;88738;-67
2021/08/20 01:32:17;;;;;;;7.57;6.82;;;;;;;18.55;69.57;100911.47;686587;28;21553;-67
2021/08/20 01:32:39;;;;;;;7.50;6.70;;;;;;;18.55;69.56;100913.38;686027;28;22382;-67
2021/08/20 01:33:00;;;;;;;7.75;6.95;;;;;;;18.53;69.39;100913.59;686498;28;46428;-67
2021/08/20 01:33:22;;;;;;;8.55;7.63;;;;;;;18.55;69.57;100913.38;689105;28;23430;-67
2021/08/20 01:33:44;;;;;;;8.23;7.00;;;;;;;18.54;69.47;100911.69;685026;28;44312;-67
2021/08/20 01:34:05;;;;;;;7.95;7.15;;;;;;;18.55;69.56;100911.47;684969;28;46319;-67
2021/08/20 01:34:26;;;;;;;7.95;7.15;;;;;;;18.54;69.45;100909.81;684322;28;22403;-66
2021/08/20 01:34:50;;;;;;;8.05;7.00;;;;;;;18.54;69.38;100915.28;682507;28;68345;-67
2021/08/20 01:35:11;;;;;;;8.38;7.43;;;;;;;18.53;69.35;100907.31;683459;28;36555;-66
2021/08/20 01:35:33;;;;;;;8.52;7.20;;;;;;;18.52;69.54;100911.09;687975;28;12201;-64
2021/08/20 01:35:55;;;;;;;8.10;7.30;;;;;;;18.52;69.53;100911.91;687804;28;21484;-66
2021/08/20 01:36:17;;;;;;;9.07;7.03;;;;;;;18.52;69.52;100906.44;685317;28;69300;-66
2021/08/20 01:36:40;;;;;;;8.32;7.28;;;;;;;18.50;69.70;100905.84;685953;28;1380;-67
2021/08/20 01:37:02;;;;;;;8.95;6.70;;;;;;;18.53;69.72;100915.50;683718;28;46135;-66
2021/08/20 01:37:24;;;;;;;8.48;7.38;;;;;;;18.52;69.69;100905.63;683602;28;46364;-67
2021/08/20 01:37:45;;;;;;;7.97;7.18;;;;;;;18.52;69.67;100903.72;684547;28;21431;-66
2021/08/20 01:38:11;;;;;;;8.00;7.20;;;;;;;18.52;69.64;100913.81;684997;28;20857;-67
2021/08/20 01:38:34;;;;;;;9.03;6.97;;;;;;;18.53;69.89;100910.03;683299;28;137975;-64
2021/08/20 01:38:57;;;;;;;7.65;6.70;;;;;;;18.53;69.76;100919.06;685825;28;13458;-66
2021/08/20 01:39:19;;;;;;;7.80;7.10;;;;;;;18.54;69.59;100911.69;681647;28;69431;-65
2021/08/20 01:39:40;;;;;;;8.50;7.10;;;;;;;18.55;69.66;100913.38;685546;28;3123;-65
2021/08/20 01:40:09;;;;;;;7.45;6.75;;;;;;;18.57;69.68;100913.16;681793;28;137935;-64
2021/08/20 01:40:32;;;;;;;7.75;6.95;;;;;;;18.56;69.61;100920.53;686088;28;38828;-66
2021/08/20 01:40:55;;;;;;;7.75;6.95;;;;;;;18.57;69.55;100913.16;685808;28;36537;-66
2021/08/20 01:41:17;;;;;;;7.50;6.80;;;;;;;18.57;69.64;100910.41;689535;28;1029;-66
2021/08/20 01:41:39;;;;;;;8.15;7.30;;;;;;;18.57;69.69;100910.41;689695;28;28608;-67
2021/08/20 01:42:00;;;;;;;8.63;7.22;;;;;;;18.57;69.53;100915.88;689555;28;40940;-64
2021/08/20 01:42:23;;;;;;;8.82;7.18;;;;;;;18.57;69.67;100913.16;692837;28;1008;-66
2021/08/20 01:42:44;;;;;;;7.75;6.72;;;;;;;18.58;69.58;100915.66;691058;28;15611;-66
2021/08/20 01:43:06;;;;;;;8.07;7.22;;;;;;;18.57;69.67;100915.88;688614;28;35472;-66
2021/08/20 01:43:27;;;;;;;7.60;6.80;;;;;;;18.58;69.91;100914.84;686908;28;29852;-66
2021/08/20 01:43:48;;;;;;;7.70;6.93;;;;;;;18.57;69.70;100922.19;687246;28;21360;-66
2021/08/20 01:44:09;;;;;;;8.00;7.15;;;;;;;18.58;69.68;100923.03;685207;28;9227;-66
2021/08/20 01:44:31;;;;;;;8.18;7.30;;;;;;;18.57;69.69;100915.88;686410;28;2743;-67